sensor_id;sensor_type;location;lat;lon;timestamp;temperature;humidity
79698;SHT31;69168;42.708;23.286;2023-08-24T00:01:19;24.68;59.03
79698;SHT31;69168;42.708;23.286;2023-08-24T00:03:45;24.63;58.84
79698;SHT31;69168;42.708;23.286;2023-08-24T00:06:12;24.67;59.35
79698;SHT31;69168;42.708;23.286;2023-08-24T00:08:37;24.63;58.57
79698;SHT31;69168;42.708;23.286;2023-08-24T00:11:03;24.60;57.83
79698;SHT31;69168;42.708;23.286;2023-08-24T00:13:29;24.65;59.39
79698;SHT31;69168;42.708;23.286;2023-08-24T00:15:55;24.64;59.90
79698;SHT31;69168;42.708;23.286;2023-08-24T00:18:21;24.61;59.58
79698;SHT31;69168;42.708;23.286;2023-08-24T00:20:49;24.56;58.48
79698;SHT31;69168;42.708;23.286;2023-08-24T00:23:14;24.53;57.74
79698;SHT31;69168;42.708;23.286;2023-08-24T00:25:40;24.39;58.15
79698;SHT31;69168;42.708;23.286;2023-08-24T00:28:08;24.41;58.26
79698;SHT31;69168;42.708;23.286;2023-08-24T00:30:34;24.30;58.99
79698;SHT31;69168;42.708;23.286;2023-08-24T00:33:00;24.29;59.36
79698;SHT31;69168;42.708;23.286;2023-08-24T00:35:25;24.33;59.46
79698;SHT31;69168;42.708;23.286;2023-08-24T00:37:51;24.33;59.80
79698;SHT31;69168;42.708;23.286;2023-08-24T00:40:16;24.22;59.37
79698;SHT31;69168;42.708;23.286;2023-08-24T00:42:44;24.25;59.40
79698;SHT31;69168;42.708;23.286;2023-08-24T00:45:12;24.30;59.54
79698;SHT31;69168;42.708;23.286;2023-08-24T00:47:42;24.35;60.06
79698;SHT31;69168;42.708;23.286;2023-08-24T00:50:09;24.22;59.50
79698;SHT31;69168;42.708;23.286;2023-08-24T00:52:40;24.23;59.34
79698;SHT31;69168;42.708;23.286;2023-08-24T00:55:07;24.08;59.64
79698;SHT31;69168;42.708;23.286;2023-08-24T00:57:33;24.16;59.61
79698;SHT31;69168;42.708;23.286;2023-08-24T01:00:04;24.10;59.55
79698;SHT31;69168;42.708;23.286;2023-08-24T01:02:39;24.13;59.79
79698;SHT31;69168;42.708;23.286;2023-08-24T01:05:06;24.18;60.17
79698;SHT31;69168;42.708;23.286;2023-08-24T01:07:36;24.19;59.95
79698;SHT31;69168;42.708;23.286;2023-08-24T01:10:03;24.12;60.08
79698;SHT31;69168;42.708;23.286;2023-08-24T01:13:07;24.05;59.84
79698;SHT31;69168;42.708;23.286;2023-08-24T01:18:11;24.02;59.79
79698;SHT31;69168;42.708;23.286;2023-08-24T01:20:40;23.79;60.15
79698;SHT31;69168;42.708;23.286;2023-08-24T01:25:48;23.50;60.61
79698;SHT31;69168;42.708;23.286;2023-08-24T01:28:16;23.73;60.70
79698;SHT31;69168;42.708;23.286;2023-08-24T01:30:42;23.81;60.41
79698;SHT31;69168;42.708;23.286;2023-08-24T01:33:09;23.85;60.79
79698;SHT31;69168;42.708;23.286;2023-08-24T01:35:37;23.92;60.30
79698;SHT31;69168;42.708;23.286;2023-08-24T01:38:03;23.68;60.48
79698;SHT31;69168;42.708;23.286;2023-08-24T01:41:16;23.61;60.73
79698;SHT31;69168;42.708;23.286;2023-08-24T01:43:15;23.63;60.53
79698;SHT31;69168;42.708;23.286;2023-08-24T01:45:41;23.54;60.66
79698;SHT31;69168;42.708;23.286;2023-08-24T01:48:09;23.67;60.75
79698;SHT31;69168;42.708;23.286;2023-08-24T01:50:35;23.77;60.33
79698;SHT31;69168;42.708;23.286;2023-08-24T01:53:02;23.77;60.46
79698;SHT31;69168;42.708;23.286;2023-08-24T01:55:27;23.57;60.71
79698;SHT31;69168;42.708;23.286;2023-08-24T01:57:55;23.53;60.77
79698;SHT31;69168;42.708;23.286;2023-08-24T02:00:20;23.65;60.44
79698;SHT31;69168;42.708;23.286;2023-08-24T02:02:46;23.51;61.18
79698;SHT31;69168;42.708;23.286;2023-08-24T02:05:12;23.61;60.98
79698;SHT31;69168;42.708;23.286;2023-08-24T02:07:38;23.65;60.72
79698;SHT31;69168;42.708;23.286;2023-08-24T02:10:04;23.54;60.71
79698;SHT31;69168;42.708;23.286;2023-08-24T02:12:30;23.58;60.72
79698;SHT31;69168;42.708;23.286;2023-08-24T02:14:55;23.31;61.13
79698;SHT31;69168;42.708;23.286;2023-08-24T02:17:21;23.43;61.01
79698;SHT31;69168;42.708;23.286;2023-08-24T02:19:46;23.33;61.13
79698;SHT31;69168;42.708;23.286;2023-08-24T02:22:12;23.40;61.45
79698;SHT31;69168;42.708;23.286;2023-08-24T02:24:37;23.30;61.08
79698;SHT31;69168;42.708;23.286;2023-08-24T02:27:03;23.19;61.25
79698;SHT31;69168;42.708;23.286;2023-08-24T02:29:28;23.15;61.37
79698;SHT31;69168;42.708;23.286;2023-08-24T02:31:55;23.27;61.48
79698;SHT31;69168;42.708;23.286;2023-08-24T02:34:20;23.31;61.42
79698;SHT31;69168;42.708;23.286;2023-08-24T02:36:46;23.26;61.54
79698;SHT31;69168;42.708;23.286;2023-08-24T02:39:11;23.29;61.24
79698;SHT31;69168;42.708;23.286;2023-08-24T02:41:37;23.23;61.32
79698;SHT31;69168;42.708;23.286;2023-08-24T02:44:03;23.27;61.00
79698;SHT31;69168;42.708;23.286;2023-08-24T02:46:28;23.22;60.94
79698;SHT31;69168;42.708;23.286;2023-08-24T02:48:54;23.09;61.43
79698;SHT31;69168;42.708;23.286;2023-08-24T02:51:22;23.10;61.27
79698;SHT31;69168;42.708;23.286;2023-08-24T02:53:48;23.09;61.57
79698;SHT31;69168;42.708;23.286;2023-08-24T02:56:13;22.91;61.90
79698;SHT31;69168;42.708;23.286;2023-08-24T02:58:39;22.96;62.08
79698;SHT31;69168;42.708;23.286;2023-08-24T03:01:05;22.79;62.53
79698;SHT31;69168;42.708;23.286;2023-08-24T03:03:36;22.65;62.98
79698;SHT31;69168;42.708;23.286;2023-08-24T03:06:04;22.81;62.62
79698;SHT31;69168;42.708;23.286;2023-08-24T03:08:32;22.72;62.87
79698;SHT31;69168;42.708;23.286;2023-08-24T03:10:58;22.68;62.87
79698;SHT31;69168;42.708;23.286;2023-08-24T03:13:24;22.74;62.82
79698;SHT31;69168;42.708;23.286;2023-08-24T03:15:50;22.72;62.85
79698;SHT31;69168;42.708;23.286;2023-08-24T03:18:17;22.78;62.96
79698;SHT31;69168;42.708;23.286;2023-08-24T03:20:47;22.65;62.95
79698;SHT31;69168;42.708;23.286;2023-08-24T03:23:14;22.91;62.43
79698;SHT31;69168;42.708;23.286;2023-08-24T03:25:40;22.88;62.80
79698;SHT31;69168;42.708;23.286;2023-08-24T03:28:07;22.75;62.77
79698;SHT31;69168;42.708;23.286;2023-08-24T03:30:34;22.71;62.89
79698;SHT31;69168;42.708;23.286;2023-08-24T03:33:00;22.68;62.98
79698;SHT31;69168;42.708;23.286;2023-08-24T03:35:26;22.48;63.02
79698;SHT31;69168;42.708;23.286;2023-08-24T03:37:51;22.27;63.38
79698;SHT31;69168;42.708;23.286;2023-08-24T03:40:17;22.32;63.50
79698;SHT31;69168;42.708;23.286;2023-08-24T03:42:43;22.44;63.16
79698;SHT31;69168;42.708;23.286;2023-08-24T03:45:08;22.47;63.24
79698;SHT31;69168;42.708;23.286;2023-08-24T03:47:34;22.63;62.59
79698;SHT31;69168;42.708;23.286;2023-08-24T03:49:59;22.64;62.46
79698;SHT31;69168;42.708;23.286;2023-08-24T03:52:25;22.71;62.54
79698;SHT31;69168;42.708;23.286;2023-08-24T03:54:50;22.72;62.12
79698;SHT31;69168;42.708;23.286;2023-08-24T03:57:16;22.74;62.30
79698;SHT31;69168;42.708;23.286;2023-08-24T03:59:42;22.63;62.41
79698;SHT31;69168;42.708;23.286;2023-08-24T04:02:07;22.57;62.96
79698;SHT31;69168;42.708;23.286;2023-08-24T04:04:33;22.58;62.65
79698;SHT31;69168;42.708;23.286;2023-08-24T04:06:58;22.61;63.00
79698;SHT31;69168;42.708;23.286;2023-08-24T04:09:24;22.54;63.00
79698;SHT31;69168;42.708;23.286;2023-08-24T04:11:49;22.55;62.58
79698;SHT31;69168;42.708;23.286;2023-08-24T04:14:15;22.51;63.00
79698;SHT31;69168;42.708;23.286;2023-08-24T04:16:40;22.55;62.56
79698;SHT31;69168;42.708;23.286;2023-08-24T04:19:07;22.57;62.28
79698;SHT31;69168;42.708;23.286;2023-08-24T04:21:33;22.54;62.54
79698;SHT31;69168;42.708;23.286;2023-08-24T04:23:59;22.50;62.82
79698;SHT31;69168;42.708;23.286;2023-08-24T04:26:24;22.58;62.86
79698;SHT31;69168;42.708;23.286;2023-08-24T04:28:50;22.50;63.18
79698;SHT31;69168;42.708;23.286;2023-08-24T04:31:15;22.21;63.98
79698;SHT31;69168;42.708;23.286;2023-08-24T04:33:41;22.17;63.96
79698;SHT31;69168;42.708;23.286;2023-08-24T04:36:06;22.33;63.71
79698;SHT31;69168;42.708;23.286;2023-08-24T04:38:32;22.37;63.30
79698;SHT31;69168;42.708;23.286;2023-08-24T04:40:57;22.29;63.08
79698;SHT31;69168;42.708;23.286;2023-08-24T04:43:24;22.35;63.19
79698;SHT31;69168;42.708;23.286;2023-08-24T04:45:50;22.43;62.99
79698;SHT31;69168;42.708;23.286;2023-08-24T04:48:22;22.44;62.76
79698;SHT31;69168;42.708;23.286;2023-08-24T04:50:49;22.39;62.81
79698;SHT31;69168;42.708;23.286;2023-08-24T04:53:16;22.46;63.16
79698;SHT31;69168;42.708;23.286;2023-08-24T04:55:42;22.53;62.98
79698;SHT31;69168;42.708;23.286;2023-08-24T04:58:08;22.53;63.03
79698;SHT31;69168;42.708;23.286;2023-08-24T05:00:34;22.57;63.02
79698;SHT31;69168;42.708;23.286;2023-08-24T05:03:04;22.55;62.93
79698;SHT31;69168;42.708;23.286;2023-08-24T05:05:30;22.58;62.86
79698;SHT31;69168;42.708;23.286;2023-08-24T05:07:56;22.26;63.64
79698;SHT31;69168;42.708;23.286;2023-08-24T05:10:22;22.09;64.15
79698;SHT31;69168;42.708;23.286;2023-08-24T05:12:48;22.29;63.75
79698;SHT31;69168;42.708;23.286;2023-08-24T05:15:13;22.41;63.86
79698;SHT31;69168;42.708;23.286;2023-08-24T05:17:39;22.44;64.27
79698;SHT31;69168;42.708;23.286;2023-08-24T05:20:05;22.40;64.19
79698;SHT31;69168;42.708;23.286;2023-08-24T05:22:31;22.32;64.33
79698;SHT31;69168;42.708;23.286;2023-08-24T05:24:56;22.68;63.42
79698;SHT31;69168;42.708;23.286;2023-08-24T05:27:22;22.79;63.24
79698;SHT31;69168;42.708;23.286;2023-08-24T05:29:47;22.91;62.77
79698;SHT31;69168;42.708;23.286;2023-08-24T05:32:13;22.98;63.08
79698;SHT31;69168;42.708;23.286;2023-08-24T05:34:38;23.10;62.94
79698;SHT31;69168;42.708;23.286;2023-08-24T05:37:04;23.12;62.70
79698;SHT31;69168;42.708;23.286;2023-08-24T05:39:29;23.29;62.47
79698;SHT31;69168;42.708;23.286;2023-08-24T05:41:54;23.44;61.75
79698;SHT31;69168;42.708;23.286;2023-08-24T05:44:20;23.50;61.25
79698;SHT31;69168;42.708;23.286;2023-08-24T05:46:46;23.43;61.29
79698;SHT31;69168;42.708;23.286;2023-08-24T05:49:12;23.18;62.46
79698;SHT31;69168;42.708;23.286;2023-08-24T05:51:38;23.08;62.35
79698;SHT31;69168;42.708;23.286;2023-08-24T05:54:03;23.01;62.52
79698;SHT31;69168;42.708;23.286;2023-08-24T05:56:29;23.02;61.96
79698;SHT31;69168;42.708;23.286;2023-08-24T05:58:57;23.06;61.66
79698;SHT31;69168;42.708;23.286;2023-08-24T06:01:24;23.02;61.26
79698;SHT31;69168;42.708;23.286;2023-08-24T06:03:50;23.31;60.80
79698;SHT31;69168;42.708;23.286;2023-08-24T06:06:15;23.24;61.03
79698;SHT31;69168;42.708;23.286;2023-08-24T06:08:43;23.34;61.15
79698;SHT31;69168;42.708;23.286;2023-08-24T06:11:08;23.44;60.54
79698;SHT31;69168;42.708;23.286;2023-08-24T06:13:34;23.42;60.91
79698;SHT31;69168;42.708;23.286;2023-08-24T06:16:00;23.44;60.64
79698;SHT31;69168;42.708;23.286;2023-08-24T06:18:25;23.64;60.08
79698;SHT31;69168;42.708;23.286;2023-08-24T06:20:51;23.68;59.88
79698;SHT31;69168;42.708;23.286;2023-08-24T06:23:17;23.74;59.41
79698;SHT31;69168;42.708;23.286;2023-08-24T06:25:44;23.82;59.01
79698;SHT31;69168;42.708;23.286;2023-08-24T06:28:10;23.89;58.86
79698;SHT31;69168;42.708;23.286;2023-08-24T06:30:42;23.81;59.46
79698;SHT31;69168;42.708;23.286;2023-08-24T06:33:12;23.86;58.98
79698;SHT31;69168;42.708;23.286;2023-08-24T06:35:38;23.64;59.70
79698;SHT31;69168;42.708;23.286;2023-08-24T06:38:03;23.57;59.93
79698;SHT31;69168;42.708;23.286;2023-08-24T06:40:30;23.60;60.13
79698;SHT31;69168;42.708;23.286;2023-08-24T06:42:56;23.71;60.20
79698;SHT31;69168;42.708;23.286;2023-08-24T06:45:22;23.61;59.76
79698;SHT31;69168;42.708;23.286;2023-08-24T06:47:48;23.57;60.09
79698;SHT31;69168;42.708;23.286;2023-08-24T06:50:14;23.63;59.61
79698;SHT31;69168;42.708;23.286;2023-08-24T06:52:40;23.86;59.22
79698;SHT31;69168;42.708;23.286;2023-08-24T06:55:08;23.94;59.19
79698;SHT31;69168;42.708;23.286;2023-08-24T06:57:35;24.22;58.97
79698;SHT31;69168;42.708;23.286;2023-08-24T07:00:00;24.40;57.79
79698;SHT31;69168;42.708;23.286;2023-08-24T07:02:26;24.41;57.81
79698;SHT31;69168;42.708;23.286;2023-08-24T07:04:51;24.47;58.02
79698;SHT31;69168;42.708;23.286;2023-08-24T07:07:16;24.41;57.74
79698;SHT31;69168;42.708;23.286;2023-08-24T07:09:42;24.59;57.97
79698;SHT31;69168;42.708;23.286;2023-08-24T07:12:09;24.65;57.86
79698;SHT31;69168;42.708;23.286;2023-08-24T07:14:38;24.65;58.05
79698;SHT31;69168;42.708;23.286;2023-08-24T07:17:06;24.83;57.62
79698;SHT31;69168;42.708;23.286;2023-08-24T07:19:31;24.88;57.70
79698;SHT31;69168;42.708;23.286;2023-08-24T07:21:57;25.02;56.52
79698;SHT31;69168;42.708;23.286;2023-08-24T07:24:23;24.91;56.47
79698;SHT31;69168;42.708;23.286;2023-08-24T07:26:54;24.91;56.46
79698;SHT31;69168;42.708;23.286;2023-08-24T07:29:21;25.05;56.31
79698;SHT31;69168;42.708;23.286;2023-08-24T07:31:46;25.16;56.33
79698;SHT31;69168;42.708;23.286;2023-08-24T07:34:12;25.30;55.56
79698;SHT31;69168;42.708;23.286;2023-08-24T07:36:37;25.32;55.90
79698;SHT31;69168;42.708;23.286;2023-08-24T07:39:03;25.38;56.08
79698;SHT31;69168;42.708;23.286;2023-08-24T07:41:28;25.59;55.90
79698;SHT31;69168;42.708;23.286;2023-08-24T07:43:54;25.63;56.17
79698;SHT31;69168;42.708;23.286;2023-08-24T07:46:19;25.88;55.44
79698;SHT31;69168;42.708;23.286;2023-08-24T07:48:45;26.05;54.15
79698;SHT31;69168;42.708;23.286;2023-08-24T07:51:10;26.14;53.59
79698;SHT31;69168;42.708;23.286;2023-08-24T07:53:36;26.04;54.08
79698;SHT31;69168;42.708;23.286;2023-08-24T07:56:02;26.00;54.30
79698;SHT31;69168;42.708;23.286;2023-08-24T07:58:28;26.05;54.22
79698;SHT31;69168;42.708;23.286;2023-08-24T08:00:53;26.14;53.03
79698;SHT31;69168;42.708;23.286;2023-08-24T08:03:19;26.24;52.46
79698;SHT31;69168;42.708;23.286;2023-08-24T08:05:46;26.18;53.07
79698;SHT31;69168;42.708;23.286;2023-08-24T08:08:13;26.28;52.89
79698;SHT31;69168;42.708;23.286;2023-08-24T08:10:38;26.38;52.36
79698;SHT31;69168;42.708;23.286;2023-08-24T08:13:04;26.47;52.51
79698;SHT31;69168;42.708;23.286;2023-08-24T08:15:29;26.55;52.15
79698;SHT31;69168;42.708;23.286;2023-08-24T08:17:55;26.82;50.82
79698;SHT31;69168;42.708;23.286;2023-08-24T08:20:20;26.77;50.69
79698;SHT31;69168;42.708;23.286;2023-08-24T08:22:46;26.67;51.42
79698;SHT31;69168;42.708;23.286;2023-08-24T08:25:11;26.70;51.84
79698;SHT31;69168;42.708;23.286;2023-08-24T08:27:43;26.79;52.01
79698;SHT31;69168;42.708;23.286;2023-08-24T08:30:09;26.84;49.67
79698;SHT31;69168;42.708;23.286;2023-08-24T08:32:35;27.07;49.17
79698;SHT31;69168;42.708;23.286;2023-08-24T08:35:01;27.15;49.07
79698;SHT31;69168;42.708;23.286;2023-08-24T08:37:27;27.12;49.33
79698;SHT31;69168;42.708;23.286;2023-08-24T08:39:52;27.11;48.70
79698;SHT31;69168;42.708;23.286;2023-08-24T08:42:18;27.12;48.76
79698;SHT31;69168;42.708;23.286;2023-08-24T08:44:45;27.22;48.64
79698;SHT31;69168;42.708;23.286;2023-08-24T08:47:11;27.25;48.96
79698;SHT31;69168;42.708;23.286;2023-08-24T08:49:38;27.37;49.18
79698;SHT31;69168;42.708;23.286;2023-08-24T08:52:05;27.42;48.68
79698;SHT31;69168;42.708;23.286;2023-08-24T08:54:31;27.52;48.17
79698;SHT31;69168;42.708;23.286;2023-08-24T08:56:59;27.63;48.15
79698;SHT31;69168;42.708;23.286;2023-08-24T08:59:27;27.65;48.60
79698;SHT31;69168;42.708;23.286;2023-08-24T09:01:56;27.69;48.53
79698;SHT31;69168;42.708;23.286;2023-08-24T09:04:24;27.79;48.84
79698;SHT31;69168;42.708;23.286;2023-08-24T09:06:49;27.84;48.78
79698;SHT31;69168;42.708;23.286;2023-08-24T09:09:15;27.89;48.41
79698;SHT31;69168;42.708;23.286;2023-08-24T09:11:40;28.03;47.84
79698;SHT31;69168;42.708;23.286;2023-08-24T09:14:07;28.11;46.79
79698;SHT31;69168;42.708;23.286;2023-08-24T09:16:33;28.08;46.94
79698;SHT31;69168;42.708;23.286;2023-08-24T09:18:58;28.12;47.02
79698;SHT31;69168;42.708;23.286;2023-08-24T09:21:24;28.15;47.54
79698;SHT31;69168;42.708;23.286;2023-08-24T09:23:54;28.35;46.28
79698;SHT31;69168;42.708;23.286;2023-08-24T09:28:56;28.52;45.54
79698;SHT31;69168;42.708;23.286;2023-08-24T09:31:23;28.56;46.04
79698;SHT31;69168;42.708;23.286;2023-08-24T09:33:49;28.65;45.97
79698;SHT31;69168;42.708;23.286;2023-08-24T09:36:15;28.65;46.21
79698;SHT31;69168;42.708;23.286;2023-08-24T09:38:47;28.83;46.71
79698;SHT31;69168;42.708;23.286;2023-08-24T09:41:14;28.93;46.47
79698;SHT31;69168;42.708;23.286;2023-08-24T09:43:40;29.04;45.40
79698;SHT31;69168;42.708;23.286;2023-08-24T09:46:05;29.08;44.63
79698;SHT31;69168;42.708;23.286;2023-08-24T09:48:32;29.32;42.17
79698;SHT31;69168;42.708;23.286;2023-08-24T09:51:00;29.27;41.56
79698;SHT31;69168;42.708;23.286;2023-08-24T09:53:32;29.42;42.05
79698;SHT31;69168;42.708;23.286;2023-08-24T09:56:02;29.44;42.09
79698;SHT31;69168;42.708;23.286;2023-08-24T09:58:28;29.51;42.19
79698;SHT31;69168;42.708;23.286;2023-08-24T10:00:55;29.58;41.32
79698;SHT31;69168;42.708;23.286;2023-08-24T10:03:24;29.62;41.67
79698;SHT31;69168;42.708;23.286;2023-08-24T10:05:54;29.75;41.63
79698;SHT31;69168;42.708;23.286;2023-08-24T10:08:22;29.80;41.77
79698;SHT31;69168;42.708;23.286;2023-08-24T10:10:54;29.97;41.32
79698;SHT31;69168;42.708;23.286;2023-08-24T10:13:29;30.02;40.93
79698;SHT31;69168;42.708;23.286;2023-08-24T10:15:57;30.06;40.95
79698;SHT31;69168;42.708;23.286;2023-08-24T10:18:23;30.23;40.86
79698;SHT31;69168;42.708;23.286;2023-08-24T10:20:49;30.37;40.74
79698;SHT31;69168;42.708;23.286;2023-08-24T10:23:15;30.55;40.42
79698;SHT31;69168;42.708;23.286;2023-08-24T10:25:42;30.64;40.60
79698;SHT31;69168;42.708;23.286;2023-08-24T10:28:10;30.72;38.47
79698;SHT31;69168;42.708;23.286;2023-08-24T10:30:36;30.64;38.61
79698;SHT31;69168;42.708;23.286;2023-08-24T10:33:03;30.51;38.95
79698;SHT31;69168;42.708;23.286;2023-08-24T10:35:30;30.49;38.80
79698;SHT31;69168;42.708;23.286;2023-08-24T10:37:58;30.45;39.36
79698;SHT31;69168;42.708;23.286;2023-08-24T10:40:35;30.51;39.66
79698;SHT31;69168;42.708;23.286;2023-08-24T10:43:05;30.47;40.08
79698;SHT31;69168;42.708;23.286;2023-08-24T10:45:59;30.44;40.61
79698;SHT31;69168;42.708;23.286;2023-08-24T10:48:29;30.48;39.85
79698;SHT31;69168;42.708;23.286;2023-08-24T10:53:43;30.32;42.09
79698;SHT31;69168;42.708;23.286;2023-08-24T10:56:16;30.23;42.38
79698;SHT31;69168;42.708;23.286;2023-08-24T10:58:45;30.04;42.91
79698;SHT31;69168;42.708;23.286;2023-08-24T11:01:15;29.90;43.78
79698;SHT31;69168;42.708;23.286;2023-08-24T11:03:41;29.80;44.31
79698;SHT31;69168;42.708;23.286;2023-08-24T11:06:22;29.82;42.63
79698;SHT31;69168;42.708;23.286;2023-08-24T11:08:49;29.69;41.59
79698;SHT31;69168;42.708;23.286;2023-08-24T11:11:23;29.58;41.65
79698;SHT31;69168;42.708;23.286;2023-08-24T11:14:17;29.45;41.41
79698;SHT31;69168;42.708;23.286;2023-08-24T11:16:52;29.58;41.08
79698;SHT31;69168;42.708;23.286;2023-08-24T11:19:17;29.55;40.93
79698;SHT31;69168;42.708;23.286;2023-08-24T11:21:45;29.52;40.81
79698;SHT31;69168;42.708;23.286;2023-08-24T11:24:13;29.42;40.90
79698;SHT31;69168;42.708;23.286;2023-08-24T11:26:46;29.35;40.72
79698;SHT31;69168;42.708;23.286;2023-08-24T11:29:15;29.08;41.65
79698;SHT31;69168;42.708;23.286;2023-08-24T11:31:41;28.87;42.32
79698;SHT31;69168;42.708;23.286;2023-08-24T11:34:07;28.93;42.57
79698;SHT31;69168;42.708;23.286;2023-08-24T11:36:43;28.99;42.72
79698;SHT31;69168;42.708;23.286;2023-08-24T11:39:17;28.99;42.56
79698;SHT31;69168;42.708;23.286;2023-08-24T11:42:05;28.93;43.01
79698;SHT31;69168;42.708;23.286;2023-08-24T11:44:50;28.92;42.66
79698;SHT31;69168;42.708;23.286;2023-08-24T11:47:19;28.94;43.00
79698;SHT31;69168;42.708;23.286;2023-08-24T11:49:46;28.79;44.32
79698;SHT31;69168;42.708;23.286;2023-08-24T11:52:11;28.63;45.28
79698;SHT31;69168;42.708;23.286;2023-08-24T11:54:36;28.55;46.56
79698;SHT31;69168;42.708;23.286;2023-08-24T11:57:07;28.15;47.78
79698;SHT31;69168;42.708;23.286;2023-08-24T11:59:34;27.98;48.68
79698;SHT31;69168;42.708;23.286;2023-08-24T12:02:01;28.07;48.62
79698;SHT31;69168;42.708;23.286;2023-08-24T12:04:27;28.05;49.13
79698;SHT31;69168;42.708;23.286;2023-08-24T12:06:52;27.90;49.55
79698;SHT31;69168;42.708;23.286;2023-08-24T12:09:18;27.70;50.14
79698;SHT31;69168;42.708;23.286;2023-08-24T12:11:43;27.76;50.05
79698;SHT31;69168;42.708;23.286;2023-08-24T12:14:16;27.70;50.34
79698;SHT31;69168;42.708;23.286;2023-08-24T12:16:42;27.93;49.34
79698;SHT31;69168;42.708;23.286;2023-08-24T12:19:08;27.70;49.95
79698;SHT31;69168;42.708;23.286;2023-08-24T12:21:34;27.83;49.19
79698;SHT31;69168;42.708;23.286;2023-08-24T12:24:04;27.80;49.24
79698;SHT31;69168;42.708;23.286;2023-08-24T12:26:35;27.83;48.80
79698;SHT31;69168;42.708;23.286;2023-08-24T12:29:05;28.00;48.49
79698;SHT31;69168;42.708;23.286;2023-08-24T12:31:32;28.11;47.53
79698;SHT31;69168;42.708;23.286;2023-08-24T12:34:02;28.24;47.71
79698;SHT31;69168;42.708;23.286;2023-08-24T12:36:29;28.27;47.24
79698;SHT31;69168;42.708;23.286;2023-08-24T12:38:54;28.39;46.60
79698;SHT31;69168;42.708;23.286;2023-08-24T12:41:20;28.44;46.11
79698;SHT31;69168;42.708;23.286;2023-08-24T12:43:45;28.63;45.47
79698;SHT31;69168;42.708;23.286;2023-08-24T12:46:11;28.70;47.24
79698;SHT31;69168;42.708;23.286;2023-08-24T12:48:36;28.80;47.43
79698;SHT31;69168;42.708;23.286;2023-08-24T12:51:02;28.89;48.22
79698;SHT31;69168;42.708;23.286;2023-08-24T12:53:27;29.11;48.07
79698;SHT31;69168;42.708;23.286;2023-08-24T12:55:53;29.41;47.72
79698;SHT31;69168;42.708;23.286;2023-08-24T12:58:18;29.47;47.71
79698;SHT31;69168;42.708;23.286;2023-08-24T13:00:45;29.45;48.09
79698;SHT31;69168;42.708;23.286;2023-08-24T13:03:11;29.47;47.82
79698;SHT31;69168;42.708;23.286;2023-08-24T13:05:36;29.55;47.59
79698;SHT31;69168;42.708;23.286;2023-08-24T13:08:02;29.39;47.46
79698;SHT31;69168;42.708;23.286;2023-08-24T13:10:28;29.39;47.60
79698;SHT31;69168;42.708;23.286;2023-08-24T13:12:53;29.34;47.86
79698;SHT31;69168;42.708;23.286;2023-08-24T13:15:19;29.52;46.56
79698;SHT31;69168;42.708;23.286;2023-08-24T13:17:45;29.59;46.15
79698;SHT31;69168;42.708;23.286;2023-08-24T13:20:11;29.55;46.01
79698;SHT31;69168;42.708;23.286;2023-08-24T13:22:36;29.55;45.72
79698;SHT31;69168;42.708;23.286;2023-08-24T13:25:02;29.68;45.21
79698;SHT31;69168;42.708;23.286;2023-08-24T13:27:28;29.69;45.22
79698;SHT31;69168;42.708;23.286;2023-08-24T13:29:53;29.69;45.36
79698;SHT31;69168;42.708;23.286;2023-08-24T13:32:22;29.72;45.46
79698;SHT31;69168;42.708;23.286;2023-08-24T13:34:47;29.66;45.94
79698;SHT31;69168;42.708;23.286;2023-08-24T13:37:13;29.61;46.38
79698;SHT31;69168;42.708;23.286;2023-08-24T13:39:38;29.70;46.30
79698;SHT31;69168;42.708;23.286;2023-08-24T13:42:04;29.86;45.83
79698;SHT31;69168;42.708;23.286;2023-08-24T13:44:29;29.87;45.11
79698;SHT31;69168;42.708;23.286;2023-08-24T13:46:54;29.99;44.91
79698;SHT31;69168;42.708;23.286;2023-08-24T13:49:20;30.07;45.14
79698;SHT31;69168;42.708;23.286;2023-08-24T13:51:46;30.04;45.48
79698;SHT31;69168;42.708;23.286;2023-08-24T13:54:12;30.14;45.25
79698;SHT31;69168;42.708;23.286;2023-08-24T13:56:38;30.23;45.04
79698;SHT31;69168;42.708;23.286;2023-08-24T13:59:03;30.14;45.08
79698;SHT31;69168;42.708;23.286;2023-08-24T14:01:29;30.10;44.99
79698;SHT31;69168;42.708;23.286;2023-08-24T14:03:54;30.00;44.54
79698;SHT31;69168;42.708;23.286;2023-08-24T14:06:19;29.93;45.55
79698;SHT31;69168;42.708;23.286;2023-08-24T14:08:45;29.83;44.48
79698;SHT31;69168;42.708;23.286;2023-08-24T14:11:10;29.80;43.89
79698;SHT31;69168;42.708;23.286;2023-08-24T14:13:36;29.73;43.34
79698;SHT31;69168;42.708;23.286;2023-08-24T14:16:01;29.79;43.34
79698;SHT31;69168;42.708;23.286;2023-08-24T14:18:26;29.79;41.96
79698;SHT31;69168;42.708;23.286;2023-08-24T14:20:53;29.85;42.55
79698;SHT31;69168;42.708;23.286;2023-08-24T14:23:18;29.93;43.66
79698;SHT31;69168;42.708;23.286;2023-08-24T14:25:46;29.99;44.08
79698;SHT31;69168;42.708;23.286;2023-08-24T14:28:12;30.17;44.21
79698;SHT31;69168;42.708;23.286;2023-08-24T14:30:38;30.24;43.89
79698;SHT31;69168;42.708;23.286;2023-08-24T14:33:03;30.44;43.34
79698;SHT31;69168;42.708;23.286;2023-08-24T14:35:29;30.44;41.38
79698;SHT31;69168;42.708;23.286;2023-08-24T14:37:54;30.41;41.20
79698;SHT31;69168;42.708;23.286;2023-08-24T14:40:19;30.49;41.79
79698;SHT31;69168;42.708;23.286;2023-08-24T14:42:45;30.42;41.78
79698;SHT31;69168;42.708;23.286;2023-08-24T14:45:10;30.57;41.93
79698;SHT31;69168;42.708;23.286;2023-08-24T14:47:36;30.66;41.81
79698;SHT31;69168;42.708;23.286;2023-08-24T14:50:01;30.78;41.75
79698;SHT31;69168;42.708;23.286;2023-08-24T14:52:27;30.61;42.37
79698;SHT31;69168;42.708;23.286;2023-08-24T14:54:52;30.74;42.31
79698;SHT31;69168;42.708;23.286;2023-08-24T14:57:18;30.78;42.50
79698;SHT31;69168;42.708;23.286;2023-08-24T14:59:43;30.95;41.92
79698;SHT31;69168;42.708;23.286;2023-08-24T15:02:08;30.96;42.05
79698;SHT31;69168;42.708;23.286;2023-08-24T15:04:34;30.87;41.83
79698;SHT31;69168;42.708;23.286;2023-08-24T15:06:59;31.00;41.70
79698;SHT31;69168;42.708;23.286;2023-08-24T15:09:25;30.80;41.76
79698;SHT31;69168;42.708;23.286;2023-08-24T15:11:50;30.79;41.58
79698;SHT31;69168;42.708;23.286;2023-08-24T15:14:16;30.47;42.25
79698;SHT31;69168;42.708;23.286;2023-08-24T15:16:41;30.45;42.75
79698;SHT31;69168;42.708;23.286;2023-08-24T15:19:07;30.35;43.34
79698;SHT31;69168;42.708;23.286;2023-08-24T15:21:32;30.28;43.04
79698;SHT31;69168;42.708;23.286;2023-08-24T15:23:58;30.23;43.48